KSTL/STL METAR and TAF weather

Enter ICAO airport designator
Station Type Date Time Source
KSTL METAR 2019/08/24 19:51 UTC NOAA

KSTL 241951Z 10010G18KT 10SM SCT045 SCT100 BKN250 26/13 A3012 RMK AO2 SLP190 T02560128


Station Type Date Time Source
KSTL Decoded METAR 2019/08/24 19:51 UTC NOAA

Station name not available
Aug 24, 2019 - 03:51 PM EDT / 2019.08.24 1951 UTC
Wind: from the E (100 degrees) at 12 MPH (10 KT) gusting to 21 MPH (18 KT):0
Visibility: 10 mile(s):0
Sky conditions: mostly cloudy
Temperature: 78.1 F (25.6 C)
Dew Point: 55.0 F (12.8 C)
Relative Humidity: 45%
Pressure (altimeter): 30.12 in. Hg (1019 hPa)
ob: KSTL 241951Z 10010G18KT 10SM SCT045 SCT100 BKN250 26/13 A3012 RMK AO2 SLP190 T02560128
cycle: 20

Station Type Date Time Source
KSTL TAF 2019/08/24 18:39 UTC NOAA

TAF KSTL 241735Z 2418/2524 10011G16KT P6SM SCT045 BKN250
FM250000 09009KT P6SM BKN250
FM250900 09006KT P6SM BKN080
FM251600 11007KT P6SM BKN050

Example: see airport list